Time;durP1;ratioP1;P1;durP2;ratioP2;P2;SDS_P1;SDS_P2;PMS_P1;PMS_P2;Temp;Humidity;BMP_temperature;BMP_pressure;BME280_temperature;BME280_humidity;BME280_pressure;Samples;Min_cycle;Max_cycle;Signal;HPM_P1;HPM_P2
2023/05/10 00:00:49;;;;;;;4.22;2.60;;;16.10;84.10;;;;;;4919766;29;20064;-86
2023/05/10 00:03:14;;;;;;;4.45;2.50;;;16.10;84.10;;;;;;4900791;29;20025;-84
2023/05/10 00:05:40;;;;;;;4.13;2.60;;;16.10;84.10;;;;;;4932996;29;20036;-84
2023/05/10 00:08:05;;;;;;;3.95;2.30;;;16.10;84.10;;;;;;4917266;29;20024;-86
2023/05/10 00:10:31;;;;;;;3.97;2.53;;;16.10;84.20;;;;;;4920124;29;20066;-85
2023/05/10 00:12:56;;;;;;;4.35;2.35;;;16.10;84.10;;;;;;4920794;29;20114;-85
2023/05/10 00:15:22;;;;;;;4.38;2.58;;;16.10;84.20;;;;;;4920453;29;20037;-84
2023/05/10 00:17:47;;;;;;;4.65;2.70;;;16.10;84.20;;;;;;4920529;29;20039;-83
2023/05/10 00:20:13;;;;;;;3.97;2.58;;;16.10;84.20;;;;;;4920219;29;20057;-84
2023/05/10 00:22:38;;;;;;;4.30;2.70;;;16.10;84.10;;;;;;4920767;29;20020;-85
2023/05/10 00:25:04;;;;;;;4.05;2.67;;;16.10;84.20;;;;;;4920102;29;20059;-86
2023/05/10 00:27:30;;;;;;;4.78;2.42;;;16.10;84.20;;;;;;4920263;29;20061;-85
2023/05/10 00:29:55;;;;;;;4.22;2.40;;;16.10;84.20;;;;;;4920150;29;20063;-85
2023/05/10 00:32:21;;;;;;;4.65;2.90;;;16.10;84.20;;;;;;4920290;29;20040;-85
2023/05/10 00:34:46;;;;;;;4.30;2.50;;;16.10;84.20;;;;;;4919975;29;20512;-85
2023/05/10 00:37:12;;;;;;;4.60;2.70;;;16.10;84.20;;;;;;4937271;29;20059;-85
2023/05/10 00:39:37;;;;;;;4.13;2.50;;;16.10;84.20;;;;;;4937510;29;20463;-85
2023/05/10 00:42:04;;;;;;;4.22;2.67;;;16.00;84.20;;;;;;4937429;29;20035;-84
2023/05/10 00:44:30;;;;;;;3.60;2.30;;;16.10;84.20;;;;;;4920287;29;20104;-85
2023/05/10 00:46:56;;;;;;;4.78;2.53;;;16.00;84.20;;;;;;4920094;29;20027;-85
2023/05/10 00:49:21;;;;;;;4.88;3.03;;;16.10;84.20;;;;;;4920539;29;20031;-84
2023/05/10 00:51:48;;;;;;;4.03;2.55;;;16.10;84.20;;;;;;4937239;29;20024;-85
2023/05/10 00:54:15;;;;;;;4.70;2.75;;;16.10;84.20;;;;;;4919780;29;20483;-85
2023/05/10 00:56:41;;;;;;;5.25;2.85;;;16.00;84.10;;;;;;4922659;29;20046;-86
2023/05/10 00:59:08;;;;;;;5.15;2.60;;;16.10;84.20;;;;;;4939304;29;20035;-85
2023/05/10 01:01:35;;;;;;;4.13;2.63;;;16.10;84.20;;;;;;4939238;29;20172;-86
2023/05/10 01:04:00;;;;;;;4.00;2.60;;;16.10;84.20;;;;;;4939048;29;20122;-86
2023/05/10 01:06:26;;;;;;;5.15;2.70;;;16.00;84.20;;;;;;4939306;28;20122;-85
2023/05/10 01:08:51;;;;;;;4.15;2.78;;;16.10;84.20;;;;;;4939199;29;20038;-85
2023/05/10 01:11:17;;;;;;;4.38;2.80;;;16.10;84.20;;;;;;4939000;29;20106;-85
2023/05/10 01:13:46;;;;;;;4.25;2.60;;;16.10;84.20;;;;;;4955270;28;20031;-85
2023/05/10 01:16:12;;;;;;;4.38;2.80;;;16.10;84.20;;;;;;4954153;28;20023;-85
2023/05/10 01:18:41;;;;;;;3.92;2.47;;;16.10;84.20;;;;;;4954589;29;20047;-85
2023/05/10 01:21:31;;;;;;;4.95;2.70;;;16.10;84.20;;;;;;4938463;29;20031;-85
2023/05/10 01:24:14;;;;;;;3.67;2.60;;;16.10;84.20;;;;;;4938244;29;20035;-85
2023/05/10 01:27:15;;;;;;;4.05;2.70;;;16.10;84.20;;;;;;4938654;29;20463;-85
2023/05/10 01:30:08;;;;;;;4.13;2.58;;;16.10;84.20;;;;;;4938309;29;20499;-85
2023/05/10 01:32:41;;;;;;;3.90;2.35;;;16.00;84.20;;;;;;4938645;29;20495;-85
2023/05/10 01:35:22;;;;;;;3.78;2.35;;;16.10;84.20;;;;;;4938375;29;20034;-85
2023/05/10 01:38:03;;;;;;;4.32;2.63;;;16.10;84.20;;;;;;4955643;28;20166;-85
2023/05/10 01:40:31;;;;;;;4.13;2.70;;;16.10;84.30;;;;;;4956278;29;20027;-84
2023/05/10 01:43:05;;;;;;;3.88;2.42;;;16.10;84.30;;;;;;4956510;29;20560;-83
2023/05/10 01:45:39;;;;;;;3.95;2.38;;;16.10;84.30;;;;;;4938959;29;20027;-85
2023/05/10 01:48:13;;;;;;;4.15;2.58;;;16.10;84.30;;;;;;4938928;29;20027;-85
2023/05/10 01:50:43;;;;;;;3.97;2.45;;;16.10;84.30;;;;;;4939502;29;20392;-85
2023/05/10 01:53:11;;;;;;;4.55;2.83;;;16.10;84.30;;;;;;4939337;29;20095;-85
2023/05/10 01:55:46;;;;;;;3.63;2.17;;;16.10;84.30;;;;;;4955409;29;20086;-85
2023/05/10 01:58:16;;;;;;;4.93;2.70;;;16.10;84.30;;;;;;4939507;29;20130;-85
2023/05/10 02:00:47;;;;;;;3.70;2.45;;;16.10;84.30;;;;;;4938850;29;20030;-85
2023/05/10 02:03:14;;;;;;;4.50;2.65;;;16.10;84.30;;;;;;4939124;29;20134;-84
2023/05/10 02:05:44;;;;;;;3.40;2.20;;;16.10;84.30;;;;;;4938686;29;20480;-85
2023/05/10 02:08:10;;;;;;;3.30;2.10;;;16.10;84.30;;;;;;4938696;29;20035;-87
2023/05/10 02:10:37;;;;;;;4.00;2.35;;;16.00;84.20;;;;;;4938784;29;20027;-85
2023/05/10 02:13:03;;;;;;;3.30;2.28;;;16.10;84.30;;;;;;4954319;29;20027;-85
2023/05/10 02:15:30;;;;;;;4.10;2.60;;;16.10;84.30;;;;;;4954268;29;20118;-85
2023/05/10 02:17:57;;;;;;;3.83;2.40;;;16.10;84.30;;;;;;4956174;28;20027;-85
2023/05/10 02:20:25;;;;;;;4.53;2.60;;;16.10;84.30;;;;;;4938289;29;20031;-85
2023/05/10 02:22:53;;;;;;;3.58;2.30;;;16.10;84.30;;;;;;4937943;29;20474;-85
2023/05/10 02:25:21;;;;;;;4.43;2.47;;;16.10;84.30;;;;;;4938334;29;20129;-85
2023/05/10 02:27:48;;;;;;;3.60;2.40;;;16.10;84.30;;;;;;4941811;29;20027;-86
2023/05/10 02:30:14;;;;;;;4.57;2.38;;;16.00;84.30;;;;;;4942015;29;20024;-85
2023/05/10 02:32:41;;;;;;;3.40;2.22;;;16.50;84.60;;;;;;4958451;29;20078;-86
2023/05/10 02:35:08;;;;;;;3.50;2.30;;;16.10;84.30;;;;;;4942262;29;20497;-86
2023/05/10 02:37:36;;;;;;;3.80;2.40;;;16.10;84.30;;;;;;4942696;29;20031;-86
2023/05/10 02:40:05;;;;;;;4.20;2.53;;;16.00;84.30;;;;;;4942945;29;20023;-85
2023/05/10 02:42:34;;;;;;;4.15;2.67;;;16.00;84.30;;;;;;4942622;29;20035;-85
2023/05/10 02:45:03;;;;;;;3.80;2.28;;;16.10;84.40;;;;;;4939121;29;20027;-87
2023/05/10 02:47:31;;;;;;;3.80;2.33;;;16.00;84.30;;;;;;4941458;29;20027;-86
2023/05/10 02:49:56;;;;;;;3.70;2.30;;;16.00;84.30;;;;;;4941978;29;20127;-85
2023/05/10 02:52:26;;;;;;;3.70;2.33;;;16.00;84.30;;;;;;4941610;29;20113;-85
2023/05/10 02:54:55;;;;;;;3.25;2.08;;;16.00;84.30;;;;;;4941037;29;20099;-86
2023/05/10 02:57:45;;;;;;;3.58;2.28;;;16.00;84.30;;;;;;4958546;28;20498;-86
2023/05/10 03:00:11;;;;;;;4.05;2.42;;;16.10;84.40;;;;;;4941663;29;20462;-86
2023/05/10 03:02:36;;;;;;;3.55;2.20;;;16.10;84.40;;;;;;4941677;29;20062;-85
2023/05/10 03:05:03;;;;;;;4.05;2.50;;;16.00;84.30;;;;;;4941674;29;20081;-85
2023/05/10 03:07:28;;;;;;;3.20;2.17;;;16.00;84.30;;;;;;4941704;29;20051;-85
2023/05/10 03:09:54;;;;;;;3.80;2.13;;;16.00;84.30;;;;;;4941915;29;20503;-85
2023/05/10 03:12:41;;;;;;;3.75;2.35;;;16.10;84.40;;;;;;4941758;29;20020;-85
2023/05/10 03:15:37;;;;;;;3.88;2.42;;;16.00;84.30;;;;;;4941438;29;20046;-85
2023/05/10 03:18:05;;;;;;;4.22;2.38;;;16.00;84.30;;;;;;4941662;29;20019;-85
2023/05/10 03:20:48;;;;;;;3.63;2.25;;;16.00;84.40;;;;;;4941298;29;20050;-84
2023/05/10 03:23:20;;;;;;;3.65;2.38;;;16.10;84.40;;;;;;4941711;29;20415;-86
2023/05/10 03:25:46;;;;;;;;;;;16.00;84.30;;;;;;4942367;29;20027;-84
2023/05/10 03:28:14;;;;;;;3.70;2.33;;;16.10;84.40;;;;;;4959593;28;19906;-84
2023/05/10 03:30:42;;;;;;;3.83;2.30;;;16.00;84.40;;;;;;4941762;29;20019;-85
2023/05/10 03:33:08;;;;;;;4.00;2.22;;;16.00;84.30;;;;;;4941556;29;20097;-83
2023/05/10 03:35:33;;;;;;;3.78;2.28;;;16.00;84.40;;;;;;4958129;29;20027;-85
2023/05/10 03:37:59;;;;;;;3.33;2.15;;;16.00;84.40;;;;;;4956321;28;20027;-85
2023/05/10 03:40:28;;;;;;;4.13;2.50;;;16.10;84.50;;;;;;4941427;29;20078;-84
2023/05/10 03:42:54;;;;;;;3.45;2.20;;;16.00;84.40;;;;;;4941663;29;20488;-84
2023/05/10 03:45:20;;;;;;;3.50;2.22;;;16.00;84.40;;;;;;4958093;29;20033;-85
2023/05/10 03:47:45;;;;;;;3.33;2.22;;;16.00;84.40;;;;;;4958951;28;20487;-84
2023/05/10 03:50:11;;;;;;;3.50;2.35;;;16.00;84.40;;;;;;4940782;29;20027;-84
2023/05/10 03:52:38;;;;;;;3.08;2.05;;;16.00;84.40;;;;;;4940483;29;20023;-85
2023/05/10 03:55:05;;;;;;;3.58;2.38;;;16.00;84.40;;;;;;4940202;29;20066;-85
2023/05/10 03:57:30;;;;;;;3.50;2.28;;;16.10;84.50;;;;;;4940346;29;20027;-84
2023/05/10 04:03:56;;;;;;;;;;;;;;;;;;;;;
2023/05/10 04:06:29;;;;;;;3.55;2.20;;;16.00;84.40;;;;;;4876777;29;20052;-82
2023/05/10 04:55:38;;;;;;;2.80;1.88;;;16.00;84.60;;;;;;4994987;23;20508;-84
2023/05/10 05:31:22;;;;;;;9.88;2.25;;;16.00;84.60;;;;;;4896746;29;20048;-85
2023/05/10 05:33:47;;;;;;;11.10;2.13;;;16.00;86.00;;;;;;4898291;29;20021;-84
2023/05/10 05:36:13;;;;;;;7.95;1.80;;;16.00;86.70;;;;;;4881444;29;20536;-84
2023/05/10 05:38:38;;;;;;;5.15;1.77;;;16.00;86.20;;;;;;4881373;29;20080;-85
2023/05/10 05:41:04;;;;;;;4.00;1.70;;;16.00;86.30;;;;;;4881248;29;20052;-84
2023/05/10 05:43:29;;;;;;;6.57;1.88;;;16.00;86.30;;;;;;4881229;29;20032;-85
2023/05/10 05:45:57;;;;;;;4.63;1.67;;;16.00;86.40;;;;;;4881074;29;20056;-84
2023/05/10 05:48:23;;;;;;;4.88;1.80;;;16.00;86.30;;;;;;4881088;29;20047;-85
2023/05/10 05:50:48;;;;;;;4.25;1.48;;;16.00;86.10;;;;;;4898108;29;20021;-85
2023/05/10 05:53:14;;;;;;;4.97;1.58;;;16.00;86.20;;;;;;4880985;29;20032;-84
2023/05/10 05:55:39;;;;;;;4.28;1.70;;;16.00;85.80;;;;;;4880967;29;20474;-85
2023/05/10 05:58:05;;;;;;;4.60;1.80;;;16.00;85.70;;;;;;4934605;23;20039;-79
2023/05/10 06:00:30;;;;;;;3.97;1.58;;;16.00;85.70;;;;;;4962089;28;20102;-80
2023/05/10 06:02:56;;;;;;;3.92;1.60;;;16.00;85.60;;;;;;4956628;29;20665;-79
2023/05/10 06:05:22;;;;;;;6.50;1.98;;;16.00;85.50;;;;;;4966794;29;20019;-80
2023/05/10 06:07:47;;;;;;;2.63;1.50;;;16.00;85.50;;;;;;4975484;28;20086;-80
2023/05/10 06:10:13;;;;;;;9.38;2.20;;;16.10;85.50;;;;;;4960904;28;20027;-77
2023/05/10 06:12:38;;;;;;;4.07;1.30;;;16.00;85.40;;;;;;4974657;28;20197;-79
2023/05/10 06:15:04;;;;;;;3.88;1.50;;;16.00;85.30;;;;;;4973528;28;20029;-79
2023/05/10 06:17:30;;;;;;;3.78;1.60;;;16.00;85.80;;;;;;4957001;28;20027;-79
2023/05/10 06:19:56;;;;;;;4.80;1.73;;;16.00;85.30;;;;;;4977182;28;20082;-77
2023/05/10 06:22:24;;;;;;;3.42;1.40;;;16.00;85.20;;;;;;4974175;28;20398;-79
2023/05/10 06:24:49;;;;;;;3.20;1.38;;;16.00;85.20;;;;;;4974387;28;20572;-77
2023/05/10 06:27:15;;;;;;;3.90;1.50;;;16.00;85.20;;;;;;4973513;28;20030;-77
2023/05/10 06:29:41;;;;;;;4.03;1.50;;;16.00;85.20;;;;;;4973531;28;20018;-75
2023/05/10 06:32:06;;;;;;;3.55;1.40;;;16.00;85.10;;;;;;4956162;28;20391;-77
2023/05/10 06:34:32;;;;;;;4.20;1.70;;;16.00;85.10;;;;;;4972913;28;20023;-77
2023/05/10 06:36:57;;;;;;;3.65;1.60;;;16.00;85.10;;;;;;4956225;28;20030;-79
2023/05/10 06:39:23;;;;;;;4.00;1.60;;;16.00;85.10;;;;;;4981984;28;20029;-79
2023/05/10 06:41:48;;;;;;;3.17;1.63;;;16.10;85.10;;;;;;4961274;28;20022;-79
2023/05/10 06:44:14;;;;;;;3.67;1.77;;;16.00;85.10;;;;;;4983774;28;20074;-79
2023/05/10 06:46:40;;;;;;;3.05;1.40;;;16.00;85.10;;;;;;4986130;28;20019;-79
2023/05/10 06:49:06;;;;;;;3.60;1.58;;;16.00;85.10;;;;;;4967679;28;20029;-79
2023/05/10 06:51:32;;;;;;;2.75;1.50;;;16.00;85.10;;;;;;4966272;28;20019;-79
2023/05/10 06:53:58;;;;;;;4.45;1.20;;;16.00;85.00;;;;;;4968073;28;20018;-79
2023/05/10 06:56:23;;;;;;;2.30;1.38;;;16.00;85.00;;;;;;4966728;28;20027;-79
2023/05/10 06:58:49;;;;;;;3.03;1.30;;;16.00;85.00;;;;;;4981919;28;20039;-79
2023/05/10 07:01:14;;;;;;;2.50;1.42;;;16.00;85.00;;;;;;4982444;28;20019;-79
2023/05/10 07:03:40;;;;;;;3.53;1.25;;;16.10;85.00;;;;;;4981668;28;20027;-79
2023/05/10 07:06:07;;;;;;;2.65;1.30;;;16.10;85.00;;;;;;4982166;28;20499;-79
2023/05/10 07:08:33;;;;;;;3.03;1.40;;;16.10;85.00;;;;;;4982053;28;20015;-78
2023/05/10 07:11:08;;;;;;;2.47;1.20;;;16.10;85.00;;;;;;4980772;28;20081;-79
2023/05/10 07:13:34;;;;;;;2.95;1.35;;;16.10;85.00;;;;;;4977392;28;20022;-79
2023/05/10 07:16:01;;;;;;;2.05;1.23;;;16.10;84.90;;;;;;4966971;28;20378;-78
2023/05/10 07:18:27;;;;;;;2.58;1.27;;;16.10;84.90;;;;;;4966669;28;20026;-79
2023/05/10 07:20:52;;;;;;;3.35;1.20;;;16.10;84.90;;;;;;4965753;28;20387;-78
2023/05/10 07:23:19;;;;;;;3.20;1.38;;;16.10;84.90;;;;;;4966512;28;20061;-77
2023/05/10 07:25:46;;;;;;;3.22;1.35;;;16.10;84.90;;;;;;4965608;28;20474;-79
2023/05/10 07:28:12;;;;;;;3.10;1.40;;;16.10;84.90;;;;;;4965041;28;20026;-79
2023/05/10 07:30:37;;;;;;;1.98;1.20;;;16.10;84.90;;;;;;4964911;28;20479;-78
2023/05/10 07:33:03;;;;;;;3.95;1.40;;;16.10;84.90;;;;;;4964511;28;20412;-77
2023/05/10 07:35:28;;;;;;;1.80;1.20;;;16.10;84.90;;;;;;4982095;28;20106;-78
2023/05/10 07:37:54;;;;;;;2.50;1.10;;;16.10;84.90;;;;;;4963592;28;20390;-79
2023/05/10 07:40:19;;;;;;;2.15;1.30;;;16.10;84.80;;;;;;4981944;28;20026;-79
2023/05/10 07:42:45;;;;;;;2.00;1.20;;;16.10;84.90;;;;;;4964448;28;20018;-80
2023/05/10 07:45:10;;;;;;;2.28;1.40;;;16.10;84.80;;;;;;4980567;28;20046;-80
2023/05/10 07:47:36;;;;;;;1.90;1.20;;;16.10;84.80;;;;;;4962826;28;20409;-79
2023/05/10 07:50:01;;;;;;;2.40;1.20;;;16.10;84.80;;;;;;4981322;28;20141;-79
2023/05/10 07:52:27;;;;;;;4.80;1.40;;;16.10;84.80;;;;;;4962787;28;20019;-78
2023/05/10 07:54:53;;;;;;;4.13;1.50;;;16.10;84.80;;;;;;4980315;28;20023;-79
2023/05/10 07:57:18;;;;;;;3.53;1.05;;;16.10;84.80;;;;;;4962853;28;20078;-77
2023/05/10 07:59:45;;;;;;;2.92;1.40;;;16.10;84.80;;;;;;4961885;28;20022;-78
2023/05/10 08:02:10;;;;;;;2.97;1.40;;;16.10;84.70;;;;;;4962571;28;20110;-78
2023/05/10 08:04:36;;;;;;;2.40;1.48;;;16.10;84.70;;;;;;4961922;28;20054;-78
2023/05/10 08:07:01;;;;;;;2.20;1.20;;;16.10;84.70;;;;;;4980779;28;20027;-79
2023/05/10 08:09:26;;;;;;;1.90;1.27;;;16.10;84.70;;;;;;4979366;28;20103;-77
2023/05/10 08:11:52;;;;;;;2.75;1.20;;;16.10;84.70;;;;;;4962626;28;20029;-78
2023/05/10 08:14:18;;;;;;;3.20;1.40;;;16.10;84.70;;;;;;4980890;28;20382;-79
2023/05/10 08:16:43;;;;;;;1.92;1.17;;;16.10;84.70;;;;;;4960790;28;20047;-79
2023/05/10 08:19:08;;;;;;;2.20;1.20;;;16.10;84.70;;;;;;4960851;28;20023;-79
2023/05/10 08:21:34;;;;;;;2.20;1.27;;;16.10;84.70;;;;;;4960209;28;20027;-78
2023/05/10 08:23:59;;;;;;;2.40;1.50;;;16.10;84.70;;;;;;4959177;28;20025;-78
2023/05/10 08:26:25;;;;;;;4.03;1.38;;;16.10;84.70;;;;;;4978262;28;20023;-79
2023/05/10 08:28:51;;;;;;;2.20;1.20;;;16.10;84.70;;;;;;4978309;28;20035;-78
2023/05/10 08:31:17;;;;;;;3.03;1.42;;;16.10;84.70;;;;;;4977726;28;20026;-79
2023/05/10 08:33:43;;;;;;;2.65;1.48;;;16.10;84.70;;;;;;4959500;28;20014;-78
2023/05/10 08:36:08;;;;;;;2.15;1.10;;;16.10;84.70;;;;;;4977235;28;20384;-78
2023/05/10 08:38:34;;;;;;;2.67;1.30;;;16.10;84.70;;;;;;4977534;28;20023;-78
2023/05/10 08:41:01;;;;;;;2.85;1.40;;;16.10;84.70;;;;;;4978198;28;20429;-79
2023/05/10 08:43:29;;;;;;;3.67;1.48;;;16.10;84.70;;;;;;4959311;28;20026;-78
2023/05/10 08:45:56;;;;;;;1.88;1.30;;;16.10;84.70;;;;;;4959556;28;20383;-79
2023/05/10 08:48:23;;;;;;;2.20;1.33;;;16.10;84.70;;;;;;4959619;28;20026;-79
2023/05/10 08:50:52;;;;;;;2.92;1.67;;;16.10;84.70;;;;;;4960945;28;20019;-79
2023/05/10 08:53:18;;;;;;;2.42;1.40;;;16.10;84.70;;;;;;4960816;28;20471;-77
2023/05/10 08:55:44;;;;;;;3.35;1.60;;;16.10;84.70;;;;;;4976513;28;20475;-78
2023/05/10 08:58:10;;;;;;;2.88;1.50;;;16.10;84.70;;;;;;4975709;28;20089;-78
2023/05/10 09:00:39;;;;;;;2.30;1.35;;;16.10;84.70;;;;;;4959641;28;20046;-78
2023/05/10 09:03:05;;;;;;;2.53;1.40;;;16.10;84.60;;;;;;4977031;28;20027;-77
2023/05/10 09:05:31;;;;;;;2.80;1.48;;;16.10;84.70;;;;;;4977950;28;20022;-78
2023/05/10 09:07:58;;;;;;;2.22;1.33;;;16.10;84.60;;;;;;4958879;28;20119;-79
2023/05/10 09:10:26;;;;;;;3.30;1.40;;;16.10;84.60;;;;;;4959901;28;20027;-80
2023/05/10 09:12:55;;;;;;;3.00;1.58;;;16.10;84.60;;;;;;4980426;28;20371;-79
2023/05/10 09:15:21;;;;;;;2.33;1.40;;;16.10;84.60;;;;;;4985139;28;20019;-79
2023/05/10 09:17:48;;;;;;;3.30;1.75;;;16.10;84.60;;;;;;4967496;28;20107;-79
2023/05/10 09:20:14;;;;;;;2.40;1.50;;;16.10;84.60;;;;;;4985391;28;20045;-79
2023/05/10 09:22:40;;;;;;;2.85;1.60;;;16.20;84.60;;;;;;4985042;28;20097;-80
2023/05/10 09:25:12;;;;;;;2.70;1.40;;;16.20;84.50;;;;;;4983919;28;20023;-79
2023/05/10 09:27:40;;;;;;;2.55;1.60;;;16.20;84.40;;;;;;4967079;28;20022;-79
2023/05/10 09:30:07;;;;;;;2.85;1.48;;;16.20;84.30;;;;;;4984268;28;20034;-79
2023/05/10 09:32:42;;;;;;;2.83;1.60;;;16.30;84.20;;;;;;4982909;28;20022;-79
2023/05/10 09:35:16;;;;;;;2.33;1.38;;;16.30;84.10;;;;;;4964744;28;20644;-79
2023/05/10 09:37:50;;;;;;;3.13;1.60;;;16.30;83.90;;;;;;4982970;28;20456;-79
2023/05/10 09:40:17;;;;;;;3.20;1.63;;;16.30;83.90;;;;;;4964793;28;20082;-79
2023/05/10 09:42:54;;;;;;;2.47;1.58;;;16.30;83.70;;;;;;4964517;28;20094;-79
2023/05/10 09:45:21;;;;;;;2.40;1.50;;;16.30;83.60;;;;;;4964474;28;20023;-79
2023/05/10 09:47:46;;;;;;;2.67;1.52;;;16.40;83.50;;;;;;4963718;28;20019;-79
2023/05/10 09:50:12;;;;;;;2.72;1.65;;;16.40;83.30;;;;;;4981241;28;20069;-79
2023/05/10 09:52:50;;;;;;;3.75;1.70;;;16.50;83.20;;;;;;4963338;28;20014;-78
2023/05/10 09:55:17;;;;;;;3.05;1.60;;;16.50;83.10;;;;;;4980218;28;20023;-78
2023/05/10 09:57:42;;;;;;;3.70;1.80;;;16.50;82.90;;;;;;4980200;28;20031;-79
2023/05/10 10:00:12;;;;;;;3.45;1.50;;;16.60;82.90;;;;;;4979344;28;20021;-80
2023/05/10 10:02:38;;;;;;;3.33;1.70;;;16.60;82.80;;;;;;4960498;28;20022;-80
2023/05/10 10:05:06;;;;;;;2.60;1.60;;;16.60;82.70;;;;;;4978415;28;20075;-80
2023/05/10 10:07:32;;;;;;;2.63;1.38;;;16.60;82.70;;;;;;4980823;28;20027;-80
2023/05/10 10:09:59;;;;;;;2.97;1.58;;;16.60;82.70;;;;;;4981740;28;20037;-80
2023/05/10 10:12:25;;;;;;;3.70;1.77;;;16.60;82.60;;;;;;4980550;28;20468;-78
2023/05/10 10:14:51;;;;;;;3.78;1.90;;;16.60;82.70;;;;;;4963255;28;20042;-78
2023/05/10 10:17:17;;;;;;;2.92;1.50;;;16.60;82.70;;;;;;4980817;28;20030;-79
2023/05/10 10:19:43;;;;;;;3.47;1.75;;;16.60;82.70;;;;;;4980206;28;20640;-80
2023/05/10 10:22:11;;;;;;;2.83;1.50;;;16.60;82.70;;;;;;4981248;28;20109;-80
2023/05/10 10:24:39;;;;;;;3.28;1.80;;;16.60;82.80;;;;;;4962903;28;20022;-80
2023/05/10 10:27:15;;;;;;;3.70;1.77;;;16.60;82.90;;;;;;4980745;28;20092;-79
2023/05/10 10:30:06;;;;;;;3.90;1.70;;;16.60;83.00;;;;;;4980412;28;20069;-80
2023/05/10 10:33:02;;;;;;;2.88;1.70;;;16.60;83.00;;;;;;4962264;28;20499;-80
2023/05/10 10:35:30;;;;;;;2.97;1.67;;;16.60;82.90;;;;;;4961736;28;20450;-80
2023/05/10 10:37:56;;;;;;;2.42;1.50;;;16.60;82.90;;;;;;4961312;28;20357;-78
2023/05/10 10:40:33;;;;;;;3.60;1.88;;;16.70;82.70;;;;;;4979027;28;20019;-80
2023/05/10 10:43:25;;;;;;;3.88;1.90;;;16.70;82.70;;;;;;4960567;28;20046;-78
2023/05/10 10:46:14;;;;;;;2.80;1.58;;;16.70;82.60;;;;;;4961675;28;20023;-79
2023/05/10 10:48:41;;;;;;;3.38;1.90;;;16.80;82.50;;;;;;4983278;28;20027;-79
2023/05/10 10:51:06;;;;;;;3.15;1.73;;;16.80;82.50;;;;;;4984074;28;20034;-79
2023/05/10 10:53:32;;;;;;;3.33;1.90;;;16.80;82.50;;;;;;4965000;28;20019;-79
2023/05/10 10:56:24;;;;;;;3.53;1.83;;;16.80;82.40;;;;;;4982951;28;20022;-79
2023/05/10 10:58:53;;;;;;;3.05;1.80;;;16.80;82.40;;;;;;4959478;28;20039;-78
2023/05/10 11:01:19;;;;;;;3.63;1.85;;;16.80;82.40;;;;;;4965553;28;20082;-79
2023/05/10 11:04:00;;;;;;;3.83;1.90;;;16.80;82.40;;;;;;4965894;28;20448;-78
2023/05/10 11:06:33;;;;;;;3.08;1.80;;;16.80;82.30;;;;;;4963660;28;20027;-79
2023/05/10 11:09:09;;;;;;;3.78;1.90;;;16.90;82.40;;;;;;4982136;28;20027;-79
2023/05/10 11:11:54;;;;;;;3.28;1.90;;;16.90;82.40;;;;;;4962485;28;20033;-80
2023/05/10 11:14:22;;;;;;;3.58;1.90;;;16.90;82.30;;;;;;4966544;28;20027;-78
2023/05/10 11:16:48;;;;;;;3.42;1.75;;;16.80;82.20;;;;;;4962884;28;20034;-79
2023/05/10 11:19:15;;;;;;;3.38;2.00;;;16.90;82.30;;;;;;4979369;28;20023;-79
2023/05/10 11:22:11;;;;;;;3.65;1.88;;;16.90;82.30;;;;;;4962381;28;20627;-79
2023/05/10 11:24:36;;;;;;;3.22;1.73;;;16.90;82.30;;;;;;4980175;28;20033;-77
2023/05/10 11:27:02;;;;;;;2.95;1.73;;;16.90;82.40;;;;;;4981685;28;20022;-79
2023/05/10 11:29:28;;;;;;;3.10;1.83;;;16.90;82.40;;;;;;4981487;28;20034;-78
2023/05/10 11:31:57;;;;;;;3.13;1.90;;;16.90;82.40;;;;;;4961438;28;20019;-78
2023/05/10 11:34:31;;;;;;;4.43;2.00;;;16.90;82.40;;;;;;4979212;28;20398;-78
2023/05/10 11:36:57;;;;;;;4.10;2.03;;;16.90;82.50;;;;;;4961889;28;20026;-79
2023/05/10 11:39:27;;;;;;;3.45;1.85;;;16.90;82.50;;;;;;4979083;28;20101;-79
2023/05/10 11:41:54;;;;;;;3.10;1.70;;;16.90;82.50;;;;;;4961836;28;20041;-78
2023/05/10 11:44:19;;;;;;;3.50;1.77;;;16.90;82.50;;;;;;4960075;28;20082;-79
2023/05/10 11:46:45;;;;;;;2.92;1.58;;;16.90;83.00;;;;;;4960808;28;20026;-78
2023/05/10 11:49:11;;;;;;;2.72;1.63;;;16.90;82.40;;;;;;4961535;28;20023;-79
2023/05/10 11:51:37;;;;;;;4.03;2.25;;;16.90;82.30;;;;;;4981439;28;20030;-78
2023/05/10 11:54:10;;;;;;;3.42;1.85;;;16.90;82.20;;;;;;4961031;28;20015;-78
2023/05/10 11:56:40;;;;;;;3.92;1.95;;;16.90;82.30;;;;;;4961093;28;20027;-78
2023/05/10 11:59:05;;;;;;;3.45;1.90;;;16.90;82.30;;;;;;4974884;23;20102;-83
2023/05/10 12:01:31;;;;;;;3.53;1.77;;;16.90;82.40;;;;;;4976281;28;20019;-81
2023/05/10 12:03:59;;;;;;;3.22;1.77;;;16.90;82.40;;;;;;4958753;28;20077;-82
2023/05/10 12:06:31;;;;;;;4.10;2.10;;;16.90;82.40;;;;;;4974992;28;20037;-82
2023/05/10 12:08:57;;;;;;;;;;;16.90;82.40;;;;;;4959251;28;20553;-82
2023/05/10 12:11:28;;;;;;;4.35;1.92;;;16.90;82.30;;;;;;4958754;28;19902;-83
2023/05/10 12:13:54;;;;;;;4.43;2.00;;;16.90;82.30;;;;;;4958554;28;20023;-82
2023/05/10 12:16:25;;;;;;;4.22;1.90;;;16.90;82.30;;;;;;4958901;28;20026;-82
2023/05/10 12:18:52;;;;;;;3.38;1.90;;;16.90;82.30;;;;;;4958667;28;20023;-82
2023/05/10 12:21:22;;;;;;;3.97;1.90;;;16.90;82.30;;;;;;4958626;28;20022;-82
2023/05/10 12:23:50;;;;;;;3.63;1.90;;;16.90;82.30;;;;;;4958478;28;20054;-82
2023/05/10 12:26:16;;;;;;;2.85;1.70;;;16.90;82.40;;;;;;4958770;28;20022;-82
2023/05/10 12:28:42;;;;;;;2.97;1.80;;;16.90;82.40;;;;;;4958596;28;20019;-82
2023/05/10 12:31:08;;;;;;;3.85;2.15;;;16.90;82.50;;;;;;4958418;28;20031;-81
2023/05/10 12:33:43;;;;;;;3.92;1.95;;;16.90;82.50;;;;;;4975505;28;20074;-82
2023/05/10 12:36:10;;;;;;;3.38;1.75;;;16.90;82.50;;;;;;4958323;28;20101;-82
2023/05/10 12:38:42;;;;;;;4.18;2.00;;;16.90;82.50;;;;;;4958221;28;20113;-82
2023/05/10 12:41:17;;;;;;;3.47;2.05;;;16.90;82.60;;;;;;4958296;28;20390;-82
2023/05/10 12:43:45;;;;;;;3.10;1.63;;;16.90;82.60;;;;;;4975364;28;20479;-83
2023/05/10 12:46:13;;;;;;;3.72;1.90;;;16.90;82.60;;;;;;4958154;28;20027;-82
2023/05/10 12:48:39;;;;;;;4.32;2.20;;;16.90;82.70;;;;;;4975518;28;20019;-82
2023/05/10 12:51:09;;;;;;;3.83;2.08;;;16.90;82.70;;;;;;4958045;28;20057;-82
2023/05/10 12:53:34;;;;;;;3.38;1.90;;;16.90;82.70;;;;;;4957952;28;20019;-82
2023/05/10 12:56:00;;;;;;;4.03;2.03;;;16.90;82.70;;;;;;4957979;28;20089;-82
2023/05/10 12:58:25;;;;;;;4.05;2.08;;;16.80;82.60;;;;;;4957783;28;20034;-84
2023/05/10 13:00:51;;;;;;;5.05;2.15;;;16.80;82.60;;;;;;4957454;28;20038;-82
2023/05/10 13:03:17;;;;;;;3.40;1.80;;;16.90;82.80;;;;;;4957711;28;20034;-81
2023/05/10 13:05:43;;;;;;;3.88;2.10;;;16.80;82.70;;;;;;4957530;28;20081;-82
2023/05/10 13:08:08;;;;;;;3.53;1.90;;;16.80;82.80;;;;;;4957712;28;20053;-80
2023/05/10 13:10:34;;;;;;;3.78;1.80;;;16.80;82.80;;;;;;4957546;28;20489;-82
2023/05/10 13:12:59;;;;;;;3.58;2.03;;;16.80;82.90;;;;;;4957556;28;20027;-82
2023/05/10 13:15:25;;;;;;;4.15;2.15;;;16.80;82.90;;;;;;4974864;28;20102;-82
2023/05/10 13:17:51;;;;;;;4.45;2.22;;;16.80;83.00;;;;;;4974780;28;20015;-83
2023/05/10 13:20:16;;;;;;;4.10;2.10;;;16.80;83.10;;;;;;4957732;28;20018;-82
2023/05/10 13:22:43;;;;;;;3.65;1.90;;;16.80;83.10;;;;;;4974709;28;20022;-82
2023/05/10 13:25:09;;;;;;;4.72;2.17;;;16.70;83.10;;;;;;4974524;28;20094;-82
2023/05/10 13:27:35;;;;;;;4.30;2.22;;;16.70;83.20;;;;;;4957125;28;20113;-82
2023/05/10 13:30:03;;;;;;;4.90;2.40;;;16.70;83.20;;;;;;4957364;28;20077;-82
2023/05/10 13:32:28;;;;;;;3.17;1.77;;;16.70;83.30;;;;;;4957247;28;20479;-81
2023/05/10 13:34:54;;;;;;;3.50;2.00;;;16.70;83.30;;;;;;4957190;28;20046;-82
2023/05/10 13:37:21;;;;;;;4.80;2.17;;;16.70;83.40;;;;;;4957156;28;20078;-82
2023/05/10 13:39:46;;;;;;;3.95;2.10;;;16.70;83.40;;;;;;4957331;28;20061;-83
2023/05/10 13:42:12;;;;;;;4.65;2.15;;;16.70;83.50;;;;;;4974474;28;20058;-83
2023/05/10 13:44:38;;;;;;;4.53;2.20;;;16.70;83.50;;;;;;4974468;28;20059;-83
2023/05/10 13:47:04;;;;;;;4.05;2.20;;;16.70;83.50;;;;;;4957126;28;20019;-83
2023/05/10 13:49:29;;;;;;;4.78;2.35;;;16.70;83.50;;;;;;4957077;28;20070;-82
2023/05/10 13:51:55;;;;;;;4.20;2.20;;;16.60;83.50;;;;;;4974571;28;20065;-83
2023/05/10 13:54:21;;;;;;;5.03;2.25;;;16.60;83.50;;;;;;4956962;28;20340;-83
2023/05/10 13:56:48;;;;;;;5.38;2.30;;;16.60;83.60;;;;;;4956894;28;20022;-87
2023/05/10 13:59:14;;;;;;;4.72;2.42;;;16.60;83.70;;;;;;4956466;28;20053;-82
2023/05/10 14:01:40;;;;;;;5.72;2.50;;;16.60;83.70;;;;;;4956958;28;20467;-82
2023/05/10 14:04:09;;;;;;;4.47;2.08;;;16.60;83.70;;;;;;4956619;28;20023;-82
2023/05/10 14:06:36;;;;;;;6.03;2.47;;;16.60;83.70;;;;;;4956750;28;20023;-83
2023/05/10 14:09:02;;;;;;;5.10;2.50;;;16.60;83.70;;;;;;4956660;28;20027;-83
2023/05/10 14:11:27;;;;;;;6.25;2.40;;;16.60;83.70;;;;;;4956707;28;20349;-82
2023/05/10 14:13:53;;;;;;;4.97;2.45;;;16.60;83.60;;;;;;4974095;28;20521;-82
2023/05/10 14:16:19;;;;;;;5.60;2.40;;;16.60;83.60;;;;;;4973929;28;20029;-82